createdAt,value
2017-10-25T00:00:56.882Z,11.30
2017-10-25T00:03:25.140Z,11.30
2017-10-25T00:05:53.207Z,11.30
2017-10-25T00:08:21.295Z,11.40
2017-10-25T00:10:49.563Z,11.40
2017-10-25T00:13:17.655Z,11.40
2017-10-25T00:15:45.729Z,11.40
2017-10-25T00:18:13.825Z,11.40
2017-10-25T00:20:42.051Z,11.40
2017-10-25T00:23:10.130Z,11.40
2017-10-25T00:25:38.971Z,11.40
2017-10-25T00:28:07.087Z,11.40
2017-10-25T00:30:35.152Z,11.40
2017-10-25T00:33:04.761Z,11.40
2017-10-25T00:35:32.834Z,11.50
2017-10-25T00:38:01.689Z,11.50
2017-10-25T00:40:29.892Z,11.50
2017-10-25T00:42:57.968Z,11.50
2017-10-25T00:45:26.839Z,11.50
2017-10-25T00:47:54.923Z,11.50
2017-10-25T00:50:23.767Z,11.50
2017-10-25T00:52:51.872Z,11.50
2017-10-25T00:55:19.948Z,11.60
2017-10-25T00:57:48.018Z,11.60
2017-10-25T01:00:16.104Z,11.60
2017-10-25T01:02:44.939Z,11.60
2017-10-25T01:05:13.026Z,11.60
2017-10-25T01:07:41.110Z,11.60
2017-10-25T01:10:09.192Z,11.50
2017-10-25T01:12:37.263Z,11.50
2017-10-25T01:15:06.116Z,11.40
2017-10-25T01:17:39.952Z,11.30
2017-10-25T01:20:08.818Z,11.30
2017-10-25T01:22:37.003Z,11.30
2017-10-25T01:25:05.864Z,11.20
2017-10-25T01:27:33.945Z,11.20
2017-10-25T01:30:02.044Z,11.10
2017-10-25T01:32:30.115Z,11.10
2017-10-25T01:34:58.201Z,11.10
2017-10-25T01:37:27.039Z,11.20
2017-10-25T01:39:55.127Z,11.20
2017-10-25T01:42:23.204Z,11.20
2017-10-25T01:44:51.283Z,11.20
2017-10-25T01:47:19.367Z,11.20
2017-10-25T01:49:47.431Z,11.20
2017-10-25T01:52:16.285Z,11.20
2017-10-25T01:54:44.387Z,11.10
2017-10-25T01:57:13.246Z,11.20
2017-10-25T01:59:41.384Z,11.20
2017-10-25T02:02:09.457Z,11.10
2017-10-25T02:04:37.547Z,11.20
2017-10-25T02:07:05.623Z,11.10
2017-10-25T02:09:33.703Z,11.10
2017-10-25T02:12:02.100Z,11.10
2017-10-25T02:14:30.264Z,11.10
2017-10-25T02:16:58.355Z,11.10
2017-10-25T02:19:27.216Z,11.10
2017-10-25T02:21:55.298Z,11.10
2017-10-25T02:24:23.396Z,11.10
2017-10-25T02:26:51.476Z,11.10
2017-10-25T02:29:19.647Z,11.10
2017-10-25T02:31:47.748Z,11.20
2017-10-25T02:34:15.835Z,11.30
2017-10-25T02:36:43.939Z,11.30
2017-10-25T02:39:12.190Z,11.30
2017-10-25T02:41:40.285Z,11.40
2017-10-25T02:44:08.362Z,11.40
2017-10-25T02:46:36.500Z,11.40
2017-10-25T02:49:05.342Z,11.50
2017-10-25T02:51:33.559Z,11.40
2017-10-25T02:54:01.633Z,11.50
2017-10-25T02:56:29.735Z,11.50
2017-10-25T02:58:58.569Z,11.60
2017-10-25T03:01:26.656Z,11.60
2017-10-25T03:03:54.730Z,11.60
2017-10-25T03:06:22.824Z,11.60
2017-10-25T03:08:51.685Z,11.60
2017-10-25T03:11:19.783Z,11.60
2017-10-25T03:13:48.623Z,11.60
2017-10-25T03:16:16.712Z,11.60
2017-10-25T03:18:44.987Z,11.60
2017-10-25T03:21:13.258Z,11.60
2017-10-25T03:23:41.372Z,11.60
2017-10-25T03:26:09.622Z,11.60
2017-10-25T03:28:37.720Z,11.60
2017-10-25T03:31:05.835Z,11.60
2017-10-25T03:33:33.926Z,11.60
2017-10-25T03:36:02.761Z,11.70
2017-10-25T03:38:30.883Z,11.70
2017-10-25T03:41:00.179Z,11.70
2017-10-25T03:43:29.033Z,11.70
2017-10-25T03:45:57.119Z,11.70
2017-10-25T03:48:25.315Z,11.70
2017-10-25T03:50:53.595Z,11.70
2017-10-25T03:53:21.707Z,11.80
2017-10-25T03:55:49.816Z,11.80
2017-10-25T03:58:17.906Z,11.80
2017-10-25T04:00:45.978Z,11.80
2017-10-25T04:03:14.356Z,11.80
2017-10-25T04:05:42.447Z,11.80
2017-10-25T04:08:10.577Z,11.80
2017-10-25T04:10:38.708Z,11.80
2017-10-25T04:13:06.849Z,11.80
2017-10-25T04:15:34.931Z,11.80
2017-10-25T04:18:03.029Z,11.80
2017-10-25T04:20:31.255Z,11.80
2017-10-25T04:22:59.349Z,11.70
2017-10-25T04:25:27.451Z,11.80
2017-10-25T04:27:55.557Z,11.70
2017-10-25T04:30:23.638Z,11.70
2017-10-25T04:32:51.727Z,11.70
2017-10-25T04:35:20.704Z,11.70
2017-10-25T04:37:48.779Z,11.70
2017-10-25T04:40:17.635Z,11.70
2017-10-25T04:42:45.731Z,11.70
2017-10-25T04:45:13.824Z,11.70
2017-10-25T04:47:42.680Z,11.70
2017-10-25T04:50:10.772Z,11.70
2017-10-25T04:52:39.616Z,11.70
2017-10-25T04:55:07.724Z,11.70
2017-10-25T04:57:35.813Z,11.70
2017-10-25T05:00:03.912Z,11.70
2017-10-25T05:02:32.139Z,11.80
2017-10-25T05:05:00.224Z,11.80
2017-10-25T05:07:29.074Z,11.70
2017-10-25T05:09:57.171Z,11.70
2017-10-25T05:12:25.243Z,11.70
2017-10-25T05:14:53.502Z,11.80
2017-10-25T05:17:21.597Z,11.80
2017-10-25T05:19:49.748Z,11.70
2017-10-25T05:22:17.936Z,11.70
2017-10-25T05:24:46.079Z,11.70
2017-10-25T05:27:14.954Z,11.70
2017-10-25T05:29:43.167Z,11.70
2017-10-25T05:32:11.292Z,11.70
2017-10-25T05:34:39.400Z,11.70
2017-10-25T05:37:07.468Z,11.60
2017-10-25T05:39:35.711Z,11.70
2017-10-25T05:42:03.803Z,11.70
2017-10-25T05:44:32.802Z,11.60
2017-10-25T05:47:00.887Z,11.60
2017-10-25T05:49:29.730Z,11.60
2017-10-25T05:51:57.820Z,11.60
2017-10-25T05:54:25.909Z,11.70
2017-10-25T05:56:54.182Z,11.60
2017-10-25T05:59:22.260Z,11.70
2017-10-25T06:01:50.340Z,11.70
2017-10-25T06:04:19.181Z,11.70
2017-10-25T06:06:47.281Z,11.70
2017-10-25T06:09:15.371Z,11.70
2017-10-25T06:11:44.224Z,11.80
2017-10-25T06:14:12.304Z,11.70
2017-10-25T06:16:40.420Z,11.80
2017-10-25T06:19:09.271Z,11.90
2017-10-25T06:21:38.124Z,11.90
2017-10-25T06:24:06.216Z,11.90
2017-10-25T06:26:34.308Z,11.90
2017-10-25T06:29:03.146Z,12.00
2017-10-25T06:31:31.999Z,12.10
2017-10-25T06:34:00.075Z,12.10
2017-10-25T06:36:28.168Z,12.10
2017-10-25T06:38:56.249Z,12.10
2017-10-25T06:41:24.338Z,12.20
2017-10-25T06:43:52.410Z,12.20
2017-10-25T06:46:20.511Z,12.20
2017-10-25T06:48:49.376Z,12.20
2017-10-25T06:51:17.463Z,12.20
2017-10-25T06:53:46.311Z,12.30
2017-10-25T06:56:14.387Z,12.20
2017-10-25T06:58:42.479Z,12.30
2017-10-25T07:01:10.553Z,12.30
2017-10-25T07:03:38.634Z,12.30
2017-10-25T07:06:07.478Z,12.40
2017-10-25T07:08:35.560Z,12.40
2017-10-25T07:11:03.639Z,12.40
2017-10-25T07:13:31.734Z,12.50
2017-10-25T07:15:59.791Z,12.50
2017-10-25T07:18:27.884Z,12.50
2017-10-25T07:20:56.728Z,12.70
2017-10-25T07:23:24.819Z,12.70
2017-10-25T07:25:52.902Z,12.80
2017-10-25T07:28:21.745Z,13.00
2017-10-25T07:30:49.835Z,12.90
2017-10-25T07:33:17.917Z,12.90
2017-10-25T07:35:45.990Z,13.00
2017-10-25T07:38:14.060Z,13.00
2017-10-25T07:40:42.155Z,13.00
2017-10-25T07:43:10.993Z,13.10
2017-10-25T07:45:39.077Z,13.10
2017-10-25T07:48:07.143Z,13.10
2017-10-25T07:50:35.233Z,13.10
2017-10-25T07:53:03.313Z,13.10
2017-10-25T07:55:32.163Z,13.20
2017-10-25T07:58:00.252Z,13.20
2017-10-25T08:00:28.325Z,13.20
2017-10-25T08:02:56.410Z,13.20
2017-10-25T08:05:25.255Z,13.20
2017-10-25T08:07:53.339Z,13.20
2017-10-25T08:10:21.422Z,13.20
2017-10-25T08:12:49.515Z,13.20
2017-10-25T08:15:17.645Z,13.20
2017-10-25T08:17:45.731Z,13.20
2017-10-25T08:20:14.575Z,13.20
2017-10-25T08:22:42.666Z,13.20
2017-10-25T08:25:10.860Z,13.20
2017-10-25T08:27:40.576Z,13.30
2017-10-25T08:30:08.724Z,13.30
2017-10-25T08:32:36.803Z,13.40
2017-10-25T08:35:04.887Z,13.50
2017-10-25T08:37:33.058Z,13.70
2017-10-25T08:40:01.357Z,13.70
2017-10-25T08:42:29.412Z,13.90
2017-10-25T08:44:58.267Z,14.30
2017-10-25T08:47:26.351Z,14.20
2017-10-25T08:49:54.439Z,14.40
2017-10-25T08:52:22.718Z,14.50
2017-10-25T08:54:50.989Z,14.40
2017-10-25T08:57:19.047Z,14.30
2017-10-25T08:59:47.119Z,14.30
2017-10-25T09:02:15.200Z,14.30
2017-10-25T09:04:43.302Z,14.40
2017-10-25T09:07:11.399Z,14.60
2017-10-25T09:09:39.500Z,14.80
2017-10-25T09:12:07.580Z,15.20
2017-10-25T09:14:35.663Z,16.00
2017-10-25T09:17:04.531Z,15.70
2017-10-25T09:19:32.620Z,15.70
2017-10-25T09:22:01.462Z,15.30
2017-10-25T09:24:29.674Z,15.30
2017-10-25T09:26:57.753Z,15.20
2017-10-25T09:29:25.856Z,15.00
2017-10-25T09:31:53.949Z,14.90
2017-10-25T09:34:22.024Z,14.90
2017-10-25T09:36:50.104Z,15.00
2017-10-25T09:39:18.200Z,15.30
2017-10-25T09:41:47.167Z,15.50
2017-10-25T09:44:15.287Z,15.50
2017-10-25T09:46:43.377Z,15.70
2017-10-25T09:49:11.462Z,15.50
2017-10-25T09:51:39.555Z,16.00
2017-10-25T09:54:07.639Z,16.50
2017-10-25T09:56:35.725Z,16.60
2017-10-25T09:59:04.571Z,17.10
2017-10-25T10:01:32.664Z,17.00
2017-10-25T10:04:00.747Z,17.60
2017-10-25T10:06:29.592Z,17.80
2017-10-25T10:08:57.680Z,17.80
2017-10-25T10:11:25.772Z,17.90
2017-10-25T10:13:54.615Z,17.70
2017-10-25T10:16:22.709Z,17.70
2017-10-25T10:18:50.787Z,17.10
2017-10-25T10:21:18.871Z,17.90
2017-10-25T10:23:47.711Z,18.10
2017-10-25T10:26:15.795Z,18.10
2017-10-25T10:28:43.871Z,17.90
2017-10-25T10:31:11.951Z,17.50
2017-10-25T10:33:40.027Z,16.80
2017-10-25T10:36:08.335Z,16.40
2017-10-25T10:38:36.492Z,16.30
2017-10-25T10:41:04.578Z,16.10
2017-10-25T10:43:32.660Z,16.60
2017-10-25T10:46:00.906Z,16.20
2017-10-25T10:48:28.984Z,16.50
2017-10-25T10:50:57.067Z,17.10
2017-10-25T10:53:25.148Z,17.00
2017-10-25T10:55:54.052Z,17.00
2017-10-25T10:58:22.099Z,16.60
2017-10-25T11:00:50.190Z,16.90
2017-10-25T11:03:19.031Z,18.00
2017-10-25T11:05:47.117Z,18.00
2017-10-25T11:08:15.192Z,18.10
2017-10-25T11:10:43.295Z,17.70
2017-10-25T11:13:12.150Z,19.20
2017-10-25T11:15:40.241Z,19.20
2017-10-25T11:18:09.087Z,18.60
2017-10-25T11:20:37.172Z,18.60
2017-10-25T11:23:05.598Z,18.60
2017-10-25T11:25:34.439Z,18.30
2017-10-25T11:28:02.514Z,18.30
2017-10-25T11:30:30.609Z,18.20
2017-10-25T11:32:59.460Z,18.40
2017-10-25T11:35:27.562Z,18.30
2017-10-25T11:38:02.455Z,18.20
2017-10-25T11:40:30.551Z,17.60
2017-10-25T11:42:58.643Z,17.30
2017-10-25T11:45:27.507Z,17.80
2017-10-25T11:47:55.648Z,17.70
2017-10-25T11:50:23.707Z,17.80
2017-10-25T11:52:51.835Z,17.40
2017-10-25T11:55:19.910Z,17.20
2017-10-25T11:57:48.171Z,17.20
2017-10-25T12:00:16.255Z,17.10
2017-10-25T12:02:45.120Z,16.80
2017-10-25T12:05:13.202Z,16.80
2017-10-25T12:07:41.280Z,17.00
2017-10-25T12:10:10.141Z,17.00
2017-10-25T12:12:38.220Z,17.00
2017-10-25T12:15:06.631Z,16.80
2017-10-25T12:17:35.488Z,16.90
2017-10-25T12:20:03.575Z,16.90
2017-10-25T12:22:31.670Z,16.90
2017-10-25T12:24:59.756Z,17.10
2017-10-25T12:27:27.852Z,17.10
2017-10-25T12:29:55.941Z,17.00
2017-10-25T12:32:24.022Z,17.10
2017-10-25T12:34:52.115Z,17.30
2017-10-25T12:37:20.968Z,17.90
2017-10-25T12:39:49.053Z,17.90
2017-10-25T12:42:17.131Z,17.80
2017-10-25T12:44:45.976Z,17.30
2017-10-25T12:47:14.065Z,17.30
2017-10-25T12:49:42.151Z,17.20
2017-10-25T12:52:10.231Z,17.30
2017-10-25T12:54:39.086Z,17.80
2017-10-25T12:57:07.179Z,17.80
2017-10-25T13:02:33.732Z,17.70
2017-10-25T13:05:01.809Z,18.00
2017-10-25T13:07:30.664Z,18.10
2017-10-25T13:09:59.127Z,18.10
2017-10-25T13:12:28.604Z,17.90
2017-10-25T13:15:01.231Z,17.60
2017-10-25T13:17:29.700Z,17.50
2017-10-25T13:19:57.784Z,17.60
2017-10-25T13:22:25.874Z,17.80
2017-10-25T13:24:53.955Z,17.90
2017-10-25T13:27:22.813Z,18.00
2017-10-25T13:29:50.889Z,17.90
2017-10-25T13:32:18.984Z,18.30
2017-10-25T13:34:47.824Z,18.50
2017-10-25T13:37:15.915Z,18.50
2017-10-25T13:39:43.995Z,18.60
2017-10-25T13:42:12.078Z,18.70
2017-10-25T13:44:40.933Z,18.50
2017-10-25T13:47:09.024Z,18.40
2017-10-25T13:49:37.103Z,18.10
2017-10-25T13:52:05.966Z,18.00
2017-10-25T13:54:34.031Z,18.00
2017-10-25T13:57:02.124Z,18.00
2017-10-25T13:59:30.219Z,18.00
2017-10-25T14:01:59.066Z,17.90
2017-10-25T14:04:27.152Z,17.90
2017-10-25T14:06:55.244Z,17.80
2017-10-25T14:09:24.151Z,17.70
2017-10-25T14:11:52.267Z,17.70
2017-10-25T14:14:21.196Z,17.60
2017-10-25T14:16:50.063Z,17.50
2017-10-25T14:19:18.144Z,17.50
2017-10-25T14:21:46.244Z,17.40
2017-10-25T14:24:14.337Z,17.30
2017-10-25T14:27:08.347Z,17.30
2017-10-25T14:29:37.436Z,17.20
2017-10-25T14:32:05.709Z,17.20
2017-10-25T14:34:33.863Z,17.20
2017-10-25T14:37:01.952Z,17.20
2017-10-25T14:39:30.059Z,17.20
2017-10-25T14:41:58.170Z,17.20
2017-10-25T14:44:26.235Z,17.10
2017-10-25T14:46:54.316Z,17.10
2017-10-25T14:49:22.384Z,17.00
2017-10-25T14:51:50.451Z,17.00
2017-10-25T14:54:18.551Z,16.90
2017-10-25T14:56:46.634Z,16.90
2017-10-25T14:59:15.488Z,16.80
2017-10-25T15:01:43.572Z,16.80
2017-10-25T15:04:11.674Z,16.60
2017-10-25T15:06:40.510Z,16.50
2017-10-25T15:09:08.596Z,16.50
2017-10-25T15:11:36.685Z,16.60
2017-10-25T15:14:04.807Z,16.30
2017-10-25T15:16:32.888Z,16.40
2017-10-25T15:19:00.971Z,16.30
2017-10-25T15:21:29.043Z,16.30
2017-10-25T15:23:57.135Z,16.30
2017-10-25T15:26:25.221Z,16.20
2017-10-25T15:28:54.069Z,15.90
2017-10-25T15:31:22.132Z,15.90
2017-10-25T15:33:50.214Z,15.90
2017-10-25T15:36:18.312Z,15.70
2017-10-25T15:38:46.396Z,15.50
2017-10-25T15:41:15.269Z,15.30
2017-10-25T15:43:43.377Z,15.30
2017-10-25T15:46:11.440Z,15.20
2017-10-25T15:48:39.520Z,15.10
2017-10-25T15:51:07.608Z,15.10
2017-10-25T15:56:32.022Z,15.10
2017-10-25T15:59:00.106Z,15.10
2017-10-25T16:01:28.183Z,15.00
2017-10-25T16:03:56.283Z,14.90
2017-10-25T16:06:25.124Z,14.60
2017-10-25T16:08:53.205Z,14.50
2017-10-25T16:11:21.294Z,14.50
2017-10-25T16:13:49.370Z,14.40
2017-10-25T16:16:18.215Z,14.30
2017-10-25T16:18:46.299Z,14.20
2017-10-25T16:21:14.390Z,14.20
2017-10-25T16:23:42.486Z,14.10
2017-10-25T16:26:10.551Z,14.10
2017-10-25T16:28:39.404Z,14.30
2017-10-25T16:31:07.483Z,14.30
2017-10-25T16:33:35.578Z,14.30
2017-10-25T16:36:04.433Z,14.10
2017-10-25T16:38:32.515Z,14.10
2017-10-25T16:41:00.646Z,13.90
2017-10-25T16:43:28.745Z,13.80
2017-10-25T16:45:56.930Z,13.70
2017-10-25T16:48:25.052Z,13.70
2017-10-25T16:50:53.143Z,13.60
2017-10-25T16:53:21.236Z,13.60
2017-10-25T16:55:49.337Z,13.60
2017-10-25T16:58:18.191Z,13.50
2017-10-25T17:00:46.264Z,13.50
2017-10-25T17:03:14.351Z,13.30
2017-10-25T17:05:43.195Z,13.20
2017-10-25T17:08:11.284Z,13.20
2017-10-25T17:10:39.368Z,13.30
2017-10-25T17:13:07.461Z,13.30
2017-10-25T17:15:36.318Z,13.00
2017-10-25T17:18:04.412Z,12.90
2017-10-25T17:20:33.255Z,12.70
2017-10-25T17:23:01.349Z,12.70
2017-10-25T17:25:29.415Z,12.70
2017-10-25T17:27:57.535Z,12.70
2017-10-25T17:30:25.607Z,12.80
2017-10-25T17:32:53.748Z,12.90
2017-10-25T17:35:22.596Z,12.90
2017-10-25T17:37:50.687Z,12.90
2017-10-25T17:40:18.768Z,12.80
2017-10-25T17:42:46.853Z,12.70
2017-10-25T17:45:15.708Z,12.70
2017-10-25T17:47:43.822Z,12.60
2017-10-25T17:50:12.679Z,12.70
2017-10-25T17:52:40.746Z,12.60
2017-10-25T17:55:08.835Z,12.80
2017-10-25T17:57:37.692Z,12.40
2017-10-25T18:00:05.772Z,12.40
2017-10-25T18:02:33.861Z,12.20
2017-10-25T18:05:01.948Z,12.10
2017-10-25T18:07:30.784Z,12.20
2017-10-25T18:09:58.870Z,12.20
2017-10-25T18:12:26.959Z,12.10
2017-10-25T18:14:56.045Z,12.20
2017-10-25T18:17:24.908Z,12.20
2017-10-25T18:19:53.028Z,12.20
2017-10-25T18:22:21.101Z,12.40
2017-10-25T18:24:49.352Z,12.20
2017-10-25T18:27:17.428Z,12.10
2017-10-25T18:29:45.513Z,12.00
2017-10-25T18:32:13.644Z,12.00
2017-10-25T18:34:41.741Z,12.20
2017-10-25T18:37:10.587Z,12.20
2017-10-25T18:39:38.679Z,12.20
2017-10-25T18:42:06.775Z,12.20
2017-10-25T18:44:34.853Z,12.10
2017-10-25T18:47:03.692Z,12.10
2017-10-25T18:49:31.798Z,12.10
2017-10-25T18:51:59.875Z,12.20
2017-10-25T18:54:28.729Z,12.00
2017-10-25T18:56:56.813Z,12.00
2017-10-25T18:59:24.955Z,11.90
2017-10-25T19:01:53.060Z,11.80
2017-10-25T19:04:21.151Z,11.90
2017-10-25T19:06:50.011Z,11.80
2017-10-25T19:09:18.527Z,11.70
2017-10-25T19:11:46.657Z,11.50
2017-10-25T19:14:14.748Z,11.60
2017-10-25T19:16:42.920Z,11.60
2017-10-25T19:19:11.787Z,11.50
2017-10-25T19:21:39.963Z,11.50
2017-10-25T19:24:08.149Z,11.40
2017-10-25T19:26:36.251Z,11.30
2017-10-25T19:29:04.506Z,11.30
2017-10-25T19:31:32.584Z,11.30
2017-10-25T19:34:00.723Z,11.50
2017-10-25T19:36:29.591Z,11.50
2017-10-25T19:38:57.703Z,11.50
2017-10-25T19:41:26.581Z,11.60
2017-10-25T19:43:54.664Z,11.50
2017-10-25T19:46:22.754Z,11.60
2017-10-25T19:48:51.609Z,11.70
2017-10-25T19:51:19.787Z,11.70
2017-10-25T19:53:47.960Z,11.70
2017-10-25T19:56:16.136Z,11.70
2017-10-25T19:58:44.997Z,11.60
2017-10-25T20:01:13.100Z,11.60
2017-10-25T20:03:41.197Z,11.60
2017-10-25T20:06:09.280Z,11.60
2017-10-25T20:08:37.376Z,11.50
2017-10-25T20:11:05.488Z,11.50
2017-10-25T20:13:33.566Z,11.40
2017-10-25T20:16:02.428Z,11.60
2017-10-25T20:18:30.527Z,11.60
2017-10-25T20:20:59.451Z,11.60
2017-10-25T20:23:27.558Z,11.60
2017-10-25T20:25:55.639Z,11.60
2017-10-25T20:28:23.735Z,11.50
2017-10-25T20:30:51.813Z,11.50
2017-10-25T20:33:19.895Z,11.50
2017-10-25T20:35:47.991Z,11.50
2017-10-25T20:38:16.102Z,11.50
2017-10-25T20:40:44.965Z,11.40
2017-10-25T20:43:13.815Z,11.40
2017-10-25T20:45:41.907Z,11.30
2017-10-25T20:48:10.006Z,11.30
2017-10-25T20:50:38.138Z,11.30
2017-10-25T20:53:06.223Z,11.30
2017-10-25T20:55:34.319Z,11.20
2017-10-25T20:58:02.412Z,11.20
2017-10-25T21:00:31.276Z,11.30
2017-10-25T21:02:59.360Z,11.30
2017-10-25T21:05:28.215Z,11.30
2017-10-25T21:07:56.307Z,11.30
2017-10-25T21:10:24.397Z,11.20
2017-10-25T21:12:53.252Z,11.20
2017-10-25T21:15:21.346Z,11.20
2017-10-25T21:17:50.190Z,11.20
2017-10-25T21:20:18.284Z,11.10
2017-10-25T21:22:46.371Z,11.10
2017-10-25T21:25:15.240Z,11.10
2017-10-25T21:27:43.327Z,11.10
2017-10-25T21:30:11.610Z,11.00
2017-10-25T21:32:39.686Z,11.10
2017-10-25T21:35:07.814Z,11.00
2017-10-25T21:37:36.003Z,11.00
2017-10-25T21:40:04.100Z,11.10
2017-10-25T21:42:32.369Z,11.10
2017-10-25T21:45:00.630Z,11.00
2017-10-25T21:47:28.717Z,11.00
2017-10-25T21:49:57.575Z,11.00
2017-10-25T21:52:25.672Z,11.00
2017-10-25T21:54:54.540Z,11.00
2017-10-25T21:57:22.632Z,11.00
2017-10-25T21:59:51.489Z,11.00
2017-10-25T22:02:19.575Z,11.00
2017-10-25T22:04:47.664Z,11.10
2017-10-25T22:07:16.516Z,11.00
2017-10-25T22:09:44.603Z,11.00
2017-10-25T22:12:12.698Z,10.90
2017-10-25T22:14:41.563Z,11.00
2017-10-25T22:17:09.657Z,10.90
2017-10-25T22:19:38.524Z,10.90
2017-10-25T22:22:06.608Z,10.90
2017-10-25T22:24:35.461Z,10.90
2017-10-25T22:27:03.566Z,10.90
2017-10-25T22:29:31.670Z,11.00
2017-10-25T22:31:59.776Z,11.10
2017-10-25T22:34:27.868Z,10.80
2017-10-25T22:36:56.048Z,10.50
2017-10-25T22:39:24.141Z,10.60
2017-10-25T22:41:52.242Z,10.60
2017-10-25T22:44:20.322Z,10.60
2017-10-25T22:46:48.412Z,10.60
2017-10-25T22:49:17.270Z,10.60
2017-10-25T22:51:45.359Z,10.60
2017-10-25T22:54:13.467Z,10.60
2017-10-25T22:56:42.391Z,10.70
2017-10-25T22:59:10.481Z,10.60
2017-10-25T23:01:38.666Z,10.70
2017-10-25T23:04:06.792Z,10.60
2017-10-25T23:06:34.932Z,10.70
2017-10-25T23:09:03.019Z,10.80
2017-10-25T23:11:31.870Z,10.80
2017-10-25T23:13:59.971Z,10.80
2017-10-25T23:16:28.829Z,10.70
2017-10-25T23:18:56.934Z,10.70
2017-10-25T23:21:25.796Z,10.70
2017-10-25T23:23:53.896Z,10.70
2017-10-25T23:26:22.743Z,10.60
2017-10-25T23:28:50.847Z,10.60
2017-10-25T23:31:19.712Z,10.60
2017-10-25T23:33:47.803Z,10.60
2017-10-25T23:36:16.654Z,10.50
2017-10-25T23:38:44.763Z,10.50
2017-10-25T23:41:13.660Z,10.60
2017-10-25T23:43:41.791Z,10.60
2017-10-25T23:46:09.981Z,10.50
2017-10-25T23:48:38.075Z,10.60
2017-10-25T23:51:06.932Z,10.60
2017-10-25T23:53:35.036Z,10.60
2017-10-25T23:56:03.887Z,10.50
2017-10-25T23:58:31.988Z,10.60
